createdAt,value
2017-01-19T00:00:25.764Z,0
2017-01-19T00:01:07.389Z,0
2017-01-19T00:01:49.040Z,0
2017-01-19T00:02:30.686Z,0
2017-01-19T00:03:12.378Z,0
2017-01-19T00:03:54.119Z,0
2017-01-19T00:06:14.915Z,0
2017-01-19T00:06:56.621Z,0
2017-01-19T00:07:38.408Z,0
2017-01-19T00:08:20.126Z,0
2017-01-19T00:09:01.837Z,0
2017-01-19T00:09:43.558Z,0
2017-01-19T00:10:25.285Z,0
2017-01-19T00:11:07.030Z,0
2017-01-19T00:11:48.732Z,0
2017-01-19T00:12:30.425Z,0
2017-01-19T00:13:12.159Z,0
2017-01-19T00:13:53.881Z,0
2017-01-19T00:14:35.454Z,0
2017-01-19T00:15:17.095Z,0
2017-01-19T00:15:58.838Z,0
2017-01-19T00:16:40.548Z,0
2017-01-19T00:17:22.278Z,0
2017-01-19T00:18:03.970Z,0
2017-01-19T00:18:45.690Z,0
2017-01-19T00:21:06.274Z,0
2017-01-19T00:21:48.022Z,0
2017-01-19T00:22:29.753Z,0
2017-01-19T00:23:11.451Z,0
2017-01-19T00:23:53.119Z,0
2017-01-19T00:24:34.842Z,0
2017-01-19T00:25:16.350Z,0
2017-01-19T00:27:31.706Z,0
2017-01-19T00:28:13.425Z,0
2017-01-19T00:28:55.173Z,0
2017-01-19T00:29:36.900Z,0
2017-01-19T00:30:18.645Z,0
2017-01-19T00:31:00.344Z,0
2017-01-19T00:31:41.936Z,0
2017-01-19T00:32:23.663Z,0
2017-01-19T00:33:05.404Z,0
2017-01-19T00:33:47.221Z,0
2017-01-19T00:34:29.006Z,0
2017-01-19T00:35:10.729Z,0
2017-01-19T00:37:31.385Z,0
2017-01-19T00:38:13.064Z,0
2017-01-19T00:38:54.822Z,0
2017-01-19T00:39:36.504Z,0
2017-01-19T00:42:07.546Z,0
2017-01-19T00:44:38.643Z,0
2017-01-19T00:45:20.428Z,0
2017-01-19T00:46:02.153Z,0
2017-01-19T00:46:43.894Z,0
2017-01-19T00:47:25.647Z,0
2017-01-19T00:48:07.306Z,0
2017-01-19T00:48:49.027Z,0
2017-01-19T00:49:30.785Z,0
2017-01-19T00:50:12.524Z,0
2017-01-19T00:50:54.298Z,0
2017-01-19T00:51:35.832Z,0
2017-01-19T00:52:17.582Z,0
2017-01-19T00:52:59.282Z,0
2017-01-19T00:53:40.971Z,0
2017-01-19T00:54:22.705Z,0
2017-01-19T00:55:04.263Z,0
2017-01-19T00:57:04.062Z,0
2017-01-19T00:57:45.672Z,0
2017-01-19T00:58:27.495Z,0
2017-01-19T00:59:09.170Z,0
2017-01-19T00:59:50.843Z,0
2017-01-19T01:00:32.465Z,0
2017-01-19T01:01:14.119Z,0
2017-01-19T01:01:55.676Z,0
2017-01-19T01:02:37.316Z,0
2017-01-19T01:04:36.761Z,0
2017-01-19T01:05:18.554Z,0
2017-01-19T01:06:00.243Z,0
2017-01-19T01:06:41.743Z,0
2017-01-19T01:07:23.341Z,0
2017-01-19T01:08:04.928Z,0
2017-01-19T01:12:19.803Z,0
2017-01-19T01:14:19.836Z,0
2017-01-19T01:15:01.509Z,0
2017-01-19T01:15:43.179Z,0
2017-01-19T01:16:24.900Z,0
2017-01-19T01:17:06.574Z,0
2017-01-19T01:17:48.195Z,0
2017-01-19T01:18:29.921Z,0
2017-01-19T01:19:11.557Z,0
2017-01-19T01:19:53.379Z,0
2017-01-19T01:20:35.144Z,0
2017-01-19T01:21:16.834Z,0
2017-01-19T01:21:58.563Z,0
2017-01-19T01:24:35.053Z,0
2017-01-19T01:26:50.327Z,0
2017-01-19T01:29:11.036Z,0
2017-01-19T01:29:52.799Z,0
2017-01-19T01:30:34.575Z,0
2017-01-19T01:31:16.091Z,0
2017-01-19T01:31:57.774Z,0
2017-01-19T01:32:39.462Z,0
2017-01-19T01:33:21.088Z,0
2017-01-19T01:34:02.646Z,0
2017-01-19T01:34:44.374Z,0
2017-01-19T01:37:04.793Z,0
2017-01-19T01:37:46.499Z,0
2017-01-19T01:38:28.217Z,0
2017-01-19T01:39:09.865Z,0
2017-01-19T01:39:51.507Z,0
2017-01-19T01:42:22.458Z,0
2017-01-19T01:44:43.236Z,0
2017-01-19T01:46:58.594Z,0
2017-01-19T01:49:34.973Z,0
2017-01-19T01:50:16.784Z,0
2017-01-19T01:50:58.516Z,0
2017-01-19T01:51:40.063Z,0
2017-01-19T01:52:21.772Z,0
2017-01-19T01:54:21.793Z,0
2017-01-19T01:55:03.430Z,0
2017-01-19T01:59:18.666Z,0
2017-01-19T02:00:00.109Z,0
2017-01-19T02:00:40.637Z,0
2017-01-19T02:01:21.165Z,0
2017-01-19T02:02:01.728Z,0
2017-01-19T02:02:42.260Z,0
2017-01-19T02:03:22.785Z,0
2017-01-19T02:04:03.313Z,0
2017-01-19T02:04:43.835Z,0
2017-01-19T02:05:24.363Z,0
2017-01-19T02:06:04.895Z,0
2017-01-19T02:06:45.428Z,0
2017-01-19T02:07:25.944Z,0
2017-01-19T02:08:06.469Z,0
2017-01-19T02:08:46.994Z,0
2017-01-19T02:09:27.532Z,0
2017-01-19T02:10:08.048Z,0
2017-01-19T02:10:48.577Z,0
2017-01-19T02:11:29.107Z,0
2017-01-19T02:12:09.639Z,0
2017-01-19T02:12:50.169Z,0
2017-01-19T02:13:30.696Z,0
2017-01-19T02:14:11.228Z,0
2017-01-19T02:14:51.762Z,0
2017-01-19T02:15:32.326Z,0
2017-01-19T02:16:12.861Z,0
2017-01-19T02:16:53.392Z,0
2017-01-19T02:17:33.921Z,0
2017-01-19T02:18:14.445Z,0
2017-01-19T02:18:54.979Z,0
2017-01-19T02:19:35.510Z,0
2017-01-19T02:20:16.037Z,0
2017-01-19T02:20:56.568Z,0
2017-01-19T02:21:37.093Z,0
2017-01-19T02:22:17.626Z,0
2017-01-19T02:22:58.154Z,0
2017-01-19T02:23:38.688Z,0
2017-01-19T02:24:19.219Z,0
2017-01-19T02:24:59.745Z,0
2017-01-19T02:25:40.278Z,0
2017-01-19T02:26:20.804Z,0
2017-01-19T02:27:01.340Z,0
2017-01-19T02:27:41.874Z,0
2017-01-19T02:28:22.399Z,0
2017-01-19T02:29:02.930Z,0
2017-01-19T02:29:43.465Z,0
2017-01-19T02:30:23.999Z,0
2017-01-19T02:31:04.527Z,0
2017-01-19T02:31:45.067Z,0
2017-01-19T02:32:25.596Z,0
2017-01-19T02:33:06.130Z,0
2017-01-19T02:33:46.659Z,0
2017-01-19T02:34:27.188Z,0
2017-01-19T02:35:07.713Z,0
2017-01-19T02:35:48.245Z,0
2017-01-19T02:36:28.779Z,0
2017-01-19T02:37:09.311Z,0
2017-01-19T02:37:49.841Z,0
2017-01-19T02:38:30.362Z,0
2017-01-19T02:39:10.898Z,0
2017-01-19T02:39:51.430Z,0
2017-01-19T02:40:31.961Z,0
2017-01-19T02:41:12.487Z,0
2017-01-19T02:41:53.015Z,0
2017-01-19T02:42:33.542Z,0
2017-01-19T02:43:14.075Z,0
2017-01-19T02:43:54.603Z,0
2017-01-19T02:44:35.127Z,0
2017-01-19T02:45:15.659Z,0
2017-01-19T02:45:56.195Z,0
2017-01-19T02:46:36.715Z,0
2017-01-19T02:47:17.241Z,0
2017-01-19T02:47:57.765Z,0
2017-01-19T02:48:38.305Z,0
2017-01-19T02:49:18.836Z,0
2017-01-19T02:49:59.365Z,0
2017-01-19T02:50:39.889Z,0
2017-01-19T02:51:20.417Z,0
2017-01-19T02:52:00.958Z,0
2017-01-19T02:52:41.476Z,0
2017-01-19T02:53:22.040Z,0
2017-01-19T02:54:02.541Z,0
2017-01-19T02:54:43.069Z,0
2017-01-19T02:55:23.598Z,0
2017-01-19T02:56:04.134Z,0
2017-01-19T02:56:44.662Z,0
2017-01-19T02:57:25.193Z,0
2017-01-19T02:58:05.722Z,0
2017-01-19T02:58:46.252Z,0
2017-01-19T02:59:26.778Z,0
2017-01-19T03:00:07.326Z,0
2017-01-19T03:00:47.826Z,0
2017-01-19T03:01:28.357Z,0
2017-01-19T03:02:08.888Z,0
2017-01-19T03:02:49.420Z,0
2017-01-19T03:03:29.947Z,0
2017-01-19T03:04:10.512Z,0
2017-01-19T03:04:51.046Z,0
2017-01-19T03:05:31.576Z,0
2017-01-19T03:06:12.106Z,0
2017-01-19T03:06:52.635Z,0
2017-01-19T03:07:33.166Z,0
2017-01-19T03:08:13.691Z,0
2017-01-19T03:08:54.226Z,0
2017-01-19T03:09:34.745Z,0
2017-01-19T03:10:15.287Z,0
2017-01-19T03:10:55.816Z,0
2017-01-19T03:11:36.345Z,0
2017-01-19T03:12:16.875Z,0
2017-01-19T03:12:57.406Z,0
2017-01-19T03:13:37.931Z,0
2017-01-19T03:14:18.457Z,0
2017-01-19T03:14:58.986Z,0
2017-01-19T03:15:39.517Z,0
2017-01-19T03:16:20.044Z,0
2017-01-19T03:17:00.582Z,0
2017-01-19T03:17:41.122Z,0
2017-01-19T03:18:21.655Z,0
2017-01-19T03:19:02.182Z,0
2017-01-19T03:19:42.705Z,0
2017-01-19T03:20:23.238Z,0
2017-01-19T03:21:03.766Z,0
2017-01-19T03:21:44.292Z,0
2017-01-19T03:22:24.830Z,0
2017-01-19T03:23:05.351Z,0
2017-01-19T03:23:45.877Z,0
2017-01-19T03:24:26.414Z,0
2017-01-19T03:25:06.943Z,0
2017-01-19T03:25:47.474Z,0
2017-01-19T03:26:28.014Z,0
2017-01-19T03:27:08.536Z,0
2017-01-19T03:27:49.063Z,0
2017-01-19T03:28:29.592Z,0
2017-01-19T03:29:10.121Z,0
2017-01-19T03:29:50.651Z,0
2017-01-19T03:30:31.183Z,0
2017-01-19T03:31:11.712Z,0
2017-01-19T03:31:52.242Z,0
2017-01-19T03:32:32.769Z,0
2017-01-19T03:33:13.296Z,0
2017-01-19T03:33:53.825Z,0
2017-01-19T03:34:34.350Z,0
2017-01-19T03:35:14.887Z,0
2017-01-19T03:35:55.418Z,0
2017-01-19T03:36:35.943Z,0
2017-01-19T03:37:16.473Z,0
2017-01-19T03:37:57.003Z,0
2017-01-19T03:38:37.540Z,0
2017-01-19T03:39:18.073Z,0
2017-01-19T03:39:58.605Z,0
2017-01-19T03:40:39.135Z,0
2017-01-19T03:41:19.663Z,0
2017-01-19T03:42:00.197Z,0
2017-01-19T03:42:40.728Z,0
2017-01-19T03:43:21.258Z,0
2017-01-19T03:44:01.787Z,0
2017-01-19T03:44:42.318Z,0
2017-01-19T03:45:22.848Z,0
2017-01-19T03:46:03.378Z,0
2017-01-19T03:46:43.911Z,0
2017-01-19T03:47:24.441Z,0
2017-01-19T03:48:04.961Z,0
2017-01-19T03:48:45.497Z,0
2017-01-19T03:49:26.029Z,0
2017-01-19T03:50:06.561Z,0
2017-01-19T03:50:47.085Z,0
2017-01-19T03:51:27.612Z,0
2017-01-19T03:52:08.160Z,0
2017-01-19T03:52:48.694Z,0
2017-01-19T03:53:29.224Z,0
2017-01-19T03:54:09.754Z,0
2017-01-19T03:54:50.283Z,0
2017-01-19T03:55:30.811Z,0
2017-01-19T03:56:11.341Z,0
2017-01-19T03:56:51.869Z,0
2017-01-19T03:57:32.391Z,0
2017-01-19T03:58:12.916Z,0
2017-01-19T03:58:53.454Z,0
2017-01-19T03:59:33.983Z,0
2017-01-19T04:00:14.512Z,0
2017-01-19T04:00:55.043Z,0
2017-01-19T04:01:35.566Z,0
2017-01-19T04:02:16.096Z,0
2017-01-19T04:02:56.621Z,0
2017-01-19T04:03:37.141Z,0
2017-01-19T04:04:17.669Z,0
2017-01-19T04:04:58.205Z,0
2017-01-19T04:05:38.735Z,0
2017-01-19T04:06:19.267Z,0
2017-01-19T04:06:59.796Z,0
2017-01-19T04:07:40.321Z,0
2017-01-19T04:08:20.860Z,0
2017-01-19T04:09:01.390Z,0
2017-01-19T04:09:41.921Z,0
2017-01-19T04:10:22.443Z,0
2017-01-19T04:11:02.972Z,0
2017-01-19T04:11:43.500Z,0
2017-01-19T04:12:24.026Z,0
2017-01-19T04:13:04.558Z,0
2017-01-19T04:13:45.078Z,0
2017-01-19T04:14:25.612Z,0
2017-01-19T04:15:06.146Z,0
2017-01-19T04:15:46.677Z,0
2017-01-19T04:16:27.208Z,0
2017-01-19T04:17:07.731Z,0
2017-01-19T04:17:48.264Z,0
2017-01-19T04:18:28.802Z,0
2017-01-19T04:19:09.326Z,0
2017-01-19T04:19:49.864Z,0
2017-01-19T04:20:30.380Z,0
2017-01-19T04:21:10.914Z,0
2017-01-19T04:21:51.449Z,0
2017-01-19T04:22:31.962Z,0
2017-01-19T04:23:12.486Z,0
2017-01-19T04:23:53.166Z,0
2017-01-19T04:24:33.689Z,0
2017-01-19T04:25:14.224Z,0
2017-01-19T04:25:54.758Z,0
2017-01-19T04:26:35.286Z,0
2017-01-19T04:27:15.808Z,0
2017-01-19T04:27:56.336Z,0
2017-01-19T04:28:36.868Z,0
2017-01-19T04:29:17.392Z,0
2017-01-19T04:29:57.926Z,0
2017-01-19T04:30:38.461Z,0
2017-01-19T04:31:18.988Z,0
2017-01-19T04:31:59.526Z,0
2017-01-19T04:32:40.057Z,0
2017-01-19T04:33:20.575Z,0
2017-01-19T04:34:01.141Z,0
2017-01-19T04:34:41.673Z,0
2017-01-19T04:35:22.192Z,0
2017-01-19T04:36:02.725Z,0
2017-01-19T04:36:43.263Z,0
2017-01-19T04:37:23.794Z,0
2017-01-19T04:38:04.331Z,0
2017-01-19T04:38:44.855Z,0
2017-01-19T04:39:25.388Z,0
2017-01-19T04:40:05.913Z,0
2017-01-19T04:40:46.442Z,0
2017-01-19T04:41:26.946Z,0
2017-01-19T04:42:07.484Z,0
2017-01-19T04:42:48.027Z,0
2017-01-19T04:43:28.561Z,0
2017-01-19T04:44:09.089Z,0
2017-01-19T04:44:49.619Z,0
2017-01-19T04:45:30.149Z,0
2017-01-19T04:46:10.680Z,0
2017-01-19T04:46:51.214Z,0
2017-01-19T04:47:31.833Z,0
2017-01-19T04:48:12.361Z,0
2017-01-19T04:48:52.987Z,0
2017-01-19T04:49:33.635Z,0
2017-01-19T04:50:14.196Z,0
2017-01-19T04:50:54.903Z,0
2017-01-19T04:51:35.433Z,0
2017-01-19T04:52:15.966Z,0
2017-01-19T04:52:56.505Z,0
2017-01-19T04:53:37.033Z,0
2017-01-19T04:54:17.568Z,0
2017-01-19T04:54:58.090Z,0
2017-01-19T04:55:38.618Z,0
2017-01-19T04:56:19.313Z,0
2017-01-19T04:57:00.081Z,0
2017-01-19T04:57:40.608Z,0
2017-01-19T04:58:21.278Z,0
2017-01-19T04:59:01.940Z,0
2017-01-19T04:59:42.468Z,0
2017-01-19T05:00:23.117Z,0
2017-01-19T05:01:03.638Z,0
2017-01-19T05:01:44.174Z,0
2017-01-19T05:02:24.707Z,0
2017-01-19T05:03:05.245Z,0
2017-01-19T05:03:45.768Z,0
2017-01-19T05:04:26.445Z,0
2017-01-19T05:05:06.972Z,0
2017-01-19T05:05:47.705Z,0
2017-01-19T05:06:28.232Z,0
2017-01-19T05:07:08.769Z,0
2017-01-19T05:07:49.820Z,0
2017-01-19T05:08:30.355Z,0
2017-01-19T05:09:10.884Z,0
2017-01-19T05:09:51.413Z,0
2017-01-19T05:10:31.931Z,0
2017-01-19T05:11:12.459Z,0
2017-01-19T05:11:53.572Z,0
2017-01-19T05:12:35.194Z,0
2017-01-19T05:13:15.934Z,0
2017-01-19T05:13:56.712Z,0
2017-01-19T05:14:37.706Z,0
2017-01-19T05:15:18.669Z,0
2017-01-19T05:15:59.202Z,0
2017-01-19T05:16:40.019Z,0
2017-01-19T05:17:21.038Z,0
2017-01-19T05:18:01.775Z,0
2017-01-19T05:18:42.584Z,0
2017-01-19T05:19:23.111Z,0
2017-01-19T05:20:03.660Z,0
2017-01-19T05:20:44.443Z,0
2017-01-19T05:21:24.967Z,0
2017-01-19T05:22:05.510Z,0
2017-01-19T05:22:46.036Z,0
2017-01-19T05:23:26.572Z,0
2017-01-19T05:24:07.109Z,0
2017-01-19T05:24:47.624Z,0
2017-01-19T05:25:28.157Z,0
2017-01-19T05:26:08.742Z,0
2017-01-19T05:26:49.231Z,0
2017-01-19T05:27:29.761Z,0
2017-01-19T05:28:10.324Z,0
2017-01-19T05:28:50.809Z,0
2017-01-19T05:29:31.339Z,0
2017-01-19T05:30:11.874Z,0
2017-01-19T05:30:52.547Z,0
2017-01-19T05:31:33.199Z,0
2017-01-19T05:32:13.732Z,0
2017-01-19T05:32:54.278Z,0
2017-01-19T05:33:35.008Z,0
2017-01-19T05:34:15.625Z,0
2017-01-19T05:34:56.161Z,0
2017-01-19T05:35:36.691Z,0
2017-01-19T05:36:17.222Z,0
2017-01-19T05:36:58.061Z,0
2017-01-19T05:37:39.276Z,0
2017-01-19T05:38:20.683Z,0
2017-01-19T05:39:01.221Z,0
2017-01-19T05:39:41.750Z,0
2017-01-19T05:40:22.274Z,0
2017-01-19T05:41:02.817Z,0
2017-01-19T05:41:43.348Z,0
2017-01-19T05:42:23.873Z,0
2017-01-19T05:43:04.404Z,0
2017-01-19T05:43:44.970Z,0
2017-01-19T05:44:25.439Z,0
2017-01-19T05:45:05.967Z,0
2017-01-19T05:45:46.502Z,0
2017-01-19T05:46:27.035Z,0
2017-01-19T05:47:07.561Z,0
2017-01-19T05:47:48.088Z,0
2017-01-19T05:48:28.622Z,0
2017-01-19T05:49:09.156Z,0
2017-01-19T05:49:49.686Z,0
2017-01-19T05:50:30.208Z,0
2017-01-19T05:51:10.739Z,0
2017-01-19T05:51:51.276Z,0
2017-01-19T05:52:31.970Z,0
2017-01-19T05:53:12.497Z,0
2017-01-19T05:53:53.033Z,0
2017-01-19T05:54:33.564Z,0
2017-01-19T05:55:14.093Z,0
2017-01-19T05:55:54.619Z,0
2017-01-19T05:56:35.148Z,0
2017-01-19T05:57:15.687Z,0
2017-01-19T05:57:56.219Z,0
2017-01-19T05:58:36.753Z,0
2017-01-19T05:59:17.279Z,0
2017-01-19T05:59:57.809Z,0
2017-01-19T06:00:38.341Z,0
2017-01-19T06:01:18.873Z,0
2017-01-19T06:01:59.402Z,0
2017-01-19T06:02:39.932Z,0
2017-01-19T06:03:20.468Z,0
2017-01-19T06:04:00.996Z,0
2017-01-19T06:04:41.527Z,0
2017-01-19T06:05:22.066Z,0
2017-01-19T06:06:02.583Z,0
2017-01-19T06:06:43.111Z,0
2017-01-19T06:07:23.694Z,0
2017-01-19T06:08:04.167Z,0
2017-01-19T06:08:44.700Z,0
2017-01-19T06:09:25.213Z,0
2017-01-19T06:10:05.745Z,0
2017-01-19T06:10:46.277Z,0
2017-01-19T06:11:26.808Z,0
2017-01-19T06:12:07.337Z,0
2017-01-19T06:12:47.858Z,0
2017-01-19T06:13:28.392Z,0
2017-01-19T06:14:08.933Z,0
2017-01-19T06:14:49.469Z,0
2017-01-19T06:15:30.008Z,0
2017-01-19T06:16:10.539Z,0
2017-01-19T06:16:51.082Z,0
2017-01-19T06:17:31.615Z,0
2017-01-19T06:18:12.161Z,0
2017-01-19T06:18:52.698Z,0
2017-01-19T06:19:33.235Z,0
2017-01-19T06:20:13.764Z,0
2017-01-19T06:20:54.299Z,0
2017-01-19T06:21:34.867Z,0
2017-01-19T06:22:15.405Z,0
2017-01-19T06:24:34.715Z,0
2017-01-19T06:25:15.253Z,0
2017-01-19T06:25:55.764Z,0
2017-01-19T06:26:36.281Z,0
2017-01-19T06:27:16.816Z,0
2017-01-19T06:27:57.378Z,0
2017-01-19T06:28:37.939Z,0
2017-01-19T06:29:18.470Z,0
2017-01-19T06:29:58.994Z,0
2017-01-19T06:30:39.539Z,0
2017-01-19T06:31:20.066Z,0
2017-01-19T06:32:00.588Z,0
2017-01-19T06:32:41.124Z,0
2017-01-19T06:33:21.645Z,0
2017-01-19T06:34:02.183Z,0
2017-01-19T06:34:42.699Z,0
2017-01-19T06:35:23.227Z,0
2017-01-19T06:36:03.760Z,0
2017-01-19T06:36:44.288Z,0
2017-01-19T06:37:24.799Z,0
2017-01-19T06:38:05.325Z,0
2017-01-19T06:38:45.876Z,0
2017-01-19T06:39:26.403Z,0
2017-01-19T06:40:06.936Z,0
2017-01-19T06:40:47.471Z,0
2017-01-19T06:41:27.994Z,0
2017-01-19T06:42:08.551Z,0
2017-01-19T06:42:49.078Z,0
2017-01-19T06:43:29.602Z,0
2017-01-19T06:44:10.137Z,0
2017-01-19T06:44:50.665Z,0
2017-01-19T06:45:31.190Z,0
2017-01-19T06:46:11.731Z,0
2017-01-19T06:46:52.248Z,0
2017-01-19T06:47:32.755Z,0
2017-01-19T06:48:13.286Z,0
2017-01-19T06:48:53.817Z,0
2017-01-19T06:49:34.368Z,0
2017-01-19T06:50:14.898Z,4
2017-01-19T06:50:55.427Z,4
2017-01-19T06:51:35.948Z,0
2017-01-19T06:52:16.484Z,0
2017-01-19T06:52:57.009Z,0
2017-01-19T06:53:37.549Z,4
2017-01-19T06:54:18.073Z,4
2017-01-19T06:54:58.599Z,0
2017-01-19T06:55:39.129Z,4
2017-01-19T06:56:19.666Z,4
2017-01-19T06:57:00.199Z,4
2017-01-19T06:57:40.724Z,4
2017-01-19T06:58:21.248Z,4
2017-01-19T06:59:01.763Z,4
2017-01-19T06:59:42.290Z,8
2017-01-19T07:00:22.813Z,8
2017-01-19T07:01:03.346Z,8
2017-01-19T07:01:43.867Z,8
2017-01-19T07:02:24.385Z,8
2017-01-19T07:03:04.920Z,12
2017-01-19T07:03:45.439Z,12
2017-01-19T07:04:25.971Z,12
2017-01-19T07:05:06.481Z,12
2017-01-19T07:05:47.006Z,16
2017-01-19T07:06:27.510Z,20
2017-01-19T07:07:08.038Z,20
2017-01-19T07:07:48.569Z,24
2017-01-19T07:08:29.093Z,24
2017-01-19T07:09:09.621Z,24
2017-01-19T07:09:50.138Z,28
2017-01-19T07:10:30.655Z,28
2017-01-19T07:11:11.194Z,32
2017-01-19T07:11:51.712Z,36
2017-01-19T07:12:32.229Z,36
2017-01-19T07:13:12.755Z,40
2017-01-19T07:13:53.278Z,40
2017-01-19T07:14:33.807Z,48
2017-01-19T07:15:14.326Z,52
2017-01-19T07:15:54.855Z,52
2017-01-19T07:16:35.384Z,56
2017-01-19T07:17:15.910Z,64
2017-01-19T07:17:56.443Z,64
2017-01-19T07:18:36.960Z,68
2017-01-19T07:19:17.496Z,72
2017-01-19T07:19:58.016Z,80
2017-01-19T07:20:38.531Z,84
2017-01-19T07:21:19.053Z,88
2017-01-19T07:21:59.573Z,92
2017-01-19T07:22:40.090Z,100
2017-01-19T07:23:20.610Z,104
2017-01-19T07:24:01.147Z,108
2017-01-19T07:24:41.667Z,112
2017-01-19T07:25:22.202Z,120
2017-01-19T07:26:02.733Z,128
2017-01-19T07:26:43.254Z,136
2017-01-19T07:27:23.787Z,136
2017-01-19T07:28:04.320Z,144
2017-01-19T07:28:44.851Z,152
2017-01-19T07:29:25.387Z,160
2017-01-19T07:30:05.903Z,164
2017-01-19T07:30:46.423Z,172
2017-01-19T07:31:26.954Z,180
2017-01-19T07:32:07.525Z,188
2017-01-19T07:32:48.048Z,196
2017-01-19T07:33:28.570Z,200
2017-01-19T07:34:09.101Z,212
2017-01-19T07:34:49.630Z,220
2017-01-19T07:35:30.191Z,224
2017-01-19T07:36:10.724Z,232
2017-01-19T07:36:51.250Z,240
2017-01-19T07:37:31.768Z,252
2017-01-19T07:38:12.302Z,260
2017-01-19T07:38:52.826Z,268
2017-01-19T07:39:33.350Z,276
2017-01-19T07:40:13.869Z,288
2017-01-19T07:40:54.397Z,296
2017-01-19T07:41:34.925Z,308
2017-01-19T07:42:15.438Z,316
2017-01-19T07:42:55.992Z,324
2017-01-19T07:43:36.517Z,336
2017-01-19T07:44:17.044Z,344
2017-01-19T07:44:57.573Z,352
2017-01-19T07:45:38.104Z,364
2017-01-19T07:46:18.611Z,376
2017-01-19T07:46:59.144Z,388
2017-01-19T07:47:39.684Z,396
2017-01-19T07:48:20.215Z,404
2017-01-19T07:49:00.742Z,416
2017-01-19T07:49:41.258Z,428
2017-01-19T07:50:21.787Z,436
2017-01-19T07:51:02.333Z,448
2017-01-19T07:51:42.859Z,460
2017-01-19T07:52:23.389Z,468
2017-01-19T07:53:03.909Z,480
2017-01-19T07:53:44.443Z,488
2017-01-19T07:54:24.956Z,500
2017-01-19T07:55:05.468Z,508
2017-01-19T07:55:46.015Z,520
2017-01-19T07:56:27.015Z,532
2017-01-19T07:57:07.579Z,544
2017-01-19T07:57:48.092Z,552
2017-01-19T07:58:28.610Z,564
2017-01-19T07:59:09.140Z,576
2017-01-19T07:59:49.683Z,588
2017-01-19T08:00:30.222Z,596
2017-01-19T08:01:10.735Z,604
2017-01-19T08:01:51.275Z,612
2017-01-19T08:02:31.799Z,620
2017-01-19T08:03:12.297Z,632
2017-01-19T08:03:52.833Z,644
2017-01-19T08:04:33.394Z,652
2017-01-19T08:05:13.927Z,660
2017-01-19T08:05:54.448Z,672
2017-01-19T08:06:34.974Z,680
2017-01-19T08:07:15.501Z,692
2017-01-19T08:07:56.031Z,696
2017-01-19T08:08:36.566Z,712
2017-01-19T08:09:17.093Z,728
2017-01-19T08:09:57.626Z,744
2017-01-19T08:10:38.163Z,760
2017-01-19T08:11:18.691Z,776
2017-01-19T08:11:59.220Z,796
2017-01-19T08:12:39.746Z,816
2017-01-19T08:13:20.287Z,828
2017-01-19T08:14:00.822Z,844
2017-01-19T08:14:41.359Z,856
2017-01-19T08:15:21.879Z,868
2017-01-19T08:16:02.403Z,884
2017-01-19T08:16:42.924Z,900
2017-01-19T08:17:23.445Z,916
2017-01-19T08:18:03.980Z,920
2017-01-19T08:18:44.525Z,920
2017-01-19T08:19:25.046Z,912
2017-01-19T08:20:05.560Z,912
2017-01-19T08:20:46.087Z,920
2017-01-19T08:21:26.616Z,924
2017-01-19T08:22:07.144Z,932
2017-01-19T08:22:47.669Z,940
2017-01-19T08:23:28.195Z,944
2017-01-19T08:24:08.733Z,952
2017-01-19T08:24:49.269Z,960
2017-01-19T08:25:29.799Z,968
2017-01-19T08:26:10.328Z,976
2017-01-19T08:26:50.864Z,980
2017-01-19T08:27:31.394Z,988
2017-01-19T08:28:11.925Z,996
2017-01-19T08:28:52.450Z,1008
2017-01-19T08:29:32.981Z,1028
2017-01-19T08:30:13.500Z,1044
2017-01-19T08:30:54.039Z,1044
2017-01-19T08:31:34.565Z,1044
2017-01-19T08:32:15.098Z,1052
2017-01-19T08:32:55.631Z,1064
2017-01-19T08:33:36.163Z,1076
2017-01-19T08:34:16.695Z,1084
2017-01-19T08:34:57.233Z,1100
2017-01-19T08:35:37.766Z,1116
2017-01-19T08:36:18.300Z,1136
2017-01-19T08:36:58.829Z,1156
2017-01-19T08:37:39.359Z,1176
2017-01-19T08:38:19.882Z,1200
2017-01-19T08:39:00.405Z,1228
2017-01-19T08:39:40.930Z,1252
2017-01-19T08:40:21.461Z,1280
2017-01-19T08:41:01.979Z,1312
2017-01-19T08:41:42.507Z,1344
2017-01-19T08:42:23.027Z,1368
2017-01-19T08:43:03.564Z,1404
2017-01-19T08:43:44.093Z,1436
2017-01-19T08:44:24.622Z,1452
2017-01-19T08:45:05.138Z,1448
2017-01-19T08:45:45.669Z,1432
2017-01-19T08:46:26.198Z,1412
2017-01-19T08:47:06.727Z,1412
2017-01-19T08:47:47.262Z,1428
2017-01-19T08:48:27.789Z,1440
2017-01-19T08:49:08.319Z,1436
2017-01-19T08:49:48.846Z,1416
2017-01-19T08:50:29.380Z,1396
2017-01-19T08:51:09.914Z,1388
2017-01-19T08:51:50.426Z,1384
2017-01-19T08:52:30.962Z,1388
2017-01-19T08:53:11.490Z,1400
2017-01-19T08:53:52.012Z,1416
2017-01-19T08:54:32.536Z,1436
2017-01-19T08:55:13.072Z,1476
2017-01-19T08:55:53.600Z,1524
2017-01-19T08:56:34.133Z,1568
2017-01-19T08:57:14.665Z,1604
2017-01-19T08:57:55.194Z,1636
2017-01-19T08:58:35.723Z,1684
2017-01-19T08:59:16.255Z,1756
2017-01-19T08:59:56.819Z,1868
2017-01-19T09:00:37.334Z,2020
2017-01-19T09:01:17.868Z,2220
2017-01-19T09:01:58.391Z,2520
2017-01-19T09:02:38.922Z,2820
2017-01-19T09:03:19.447Z,2936
2017-01-19T09:03:59.980Z,2812
2017-01-19T09:04:40.500Z,2848
2017-01-19T09:05:21.052Z,2832
2017-01-19T09:06:01.578Z,3052
2017-01-19T09:06:42.112Z,3780
2017-01-19T09:07:22.628Z,4688
2017-01-19T09:08:03.153Z,5472
2017-01-19T09:08:43.691Z,5484
2017-01-19T09:09:24.215Z,5044
2017-01-19T09:10:04.753Z,4596
2017-01-19T09:10:45.293Z,4304
2017-01-19T09:11:25.804Z,4780
2017-01-19T09:12:06.333Z,5420
2017-01-19T09:12:46.861Z,6372
2017-01-19T09:13:27.392Z,6932
2017-01-19T09:14:07.923Z,7276
2017-01-19T09:14:48.428Z,7960
2017-01-19T09:15:28.961Z,8212
2017-01-19T09:16:09.495Z,7808
2017-01-19T09:16:50.025Z,7628
2017-01-19T09:17:30.555Z,8020
2017-01-19T09:18:11.077Z,8380
2017-01-19T09:18:51.614Z,8096
2017-01-19T09:19:32.148Z,7724
2017-01-19T09:20:12.668Z,7988
2017-01-19T09:20:53.208Z,8460
2017-01-19T09:21:33.736Z,9064
2017-01-19T09:22:14.256Z,9924
2017-01-19T09:22:54.791Z,9984
2017-01-19T09:23:35.329Z,9732
2017-01-19T09:24:15.858Z,9296
2017-01-19T09:24:56.394Z,8680
2017-01-19T09:25:36.926Z,7384
2017-01-19T09:26:17.435Z,5684
2017-01-19T09:26:57.959Z,5092
2017-01-19T09:27:38.491Z,5164
2017-01-19T09:28:19.024Z,4840
2017-01-19T09:28:59.543Z,4396
2017-01-19T09:29:40.081Z,4292
2017-01-19T09:30:20.611Z,4260
2017-01-19T09:31:01.143Z,4116
2017-01-19T09:31:41.677Z,3964
2017-01-19T09:32:22.211Z,3856
2017-01-19T09:33:02.734Z,3832
2017-01-19T09:33:43.268Z,3836
2017-01-19T09:34:23.796Z,3868
2017-01-19T09:35:04.331Z,3928
2017-01-19T09:35:44.862Z,4004
2017-01-19T09:36:25.385Z,4068
2017-01-19T09:37:05.916Z,4132
2017-01-19T09:37:46.435Z,4184
2017-01-19T09:38:26.972Z,4260
2017-01-19T09:39:07.525Z,4340
2017-01-19T09:39:48.057Z,4444
2017-01-19T09:40:28.588Z,4592
2017-01-19T09:41:09.121Z,4748
2017-01-19T09:41:49.654Z,4892
2017-01-19T09:42:30.181Z,5108
2017-01-19T09:43:10.717Z,5488
2017-01-19T09:43:51.246Z,6296
2017-01-19T09:44:31.775Z,7468
2017-01-19T09:45:12.313Z,9172
2017-01-19T09:45:52.859Z,10996
2017-01-19T09:46:33.391Z,12788
2017-01-19T09:47:13.927Z,13332
2017-01-19T09:47:54.462Z,14592
2017-01-19T09:48:34.997Z,15744
2017-01-19T09:49:15.534Z,16960
2017-01-19T09:49:56.059Z,17216
2017-01-19T09:50:36.590Z,17312
2017-01-19T09:51:17.131Z,17792
2017-01-19T09:51:57.667Z,18240
2017-01-19T09:52:38.192Z,18528
2017-01-19T09:53:18.716Z,18688
2017-01-19T09:53:59.248Z,18944
2017-01-19T09:54:39.786Z,18592
2017-01-19T09:55:20.315Z,17952
2017-01-19T09:56:00.848Z,17312
2017-01-19T09:56:41.385Z,17600
2017-01-19T09:57:21.917Z,18688
2017-01-19T09:58:02.457Z,19456
2017-01-19T09:58:42.990Z,19808
2017-01-19T09:59:23.525Z,19552
2017-01-19T10:00:04.060Z,19552
2017-01-19T10:00:44.607Z,19808
2017-01-19T10:01:25.151Z,20224
2017-01-19T10:02:05.785Z,20672
2017-01-19T10:02:46.320Z,21248
2017-01-19T10:03:26.847Z,21248
2017-01-19T10:04:07.384Z,22048
2017-01-19T10:04:47.902Z,22304
2017-01-19T10:05:28.438Z,22464
2017-01-19T10:06:08.967Z,22944
2017-01-19T10:06:49.508Z,23200
2017-01-19T10:07:30.043Z,23520
2017-01-19T10:08:10.580Z,23360
2017-01-19T10:08:51.122Z,23264
2017-01-19T10:09:31.658Z,23328
2017-01-19T10:10:12.188Z,23584
2017-01-19T10:10:52.721Z,23776
2017-01-19T10:11:33.258Z,24032
2017-01-19T10:12:13.799Z,24160
2017-01-19T10:12:54.317Z,24448
2017-01-19T10:13:34.863Z,24576
2017-01-19T10:14:15.393Z,24960
2017-01-19T10:14:55.932Z,25440
2017-01-19T10:15:36.473Z,26560
2017-01-19T10:16:17.000Z,25888
2017-01-19T10:16:57.538Z,25536
2017-01-19T10:17:38.069Z,25280
2017-01-19T10:18:18.595Z,24864
2017-01-19T10:18:59.129Z,25280
2017-01-19T10:19:39.664Z,25344
2017-01-19T10:20:20.203Z,25696